Time;durP1;ratioP1;P1;durP2;ratioP2;P2;SDS_P1;SDS_P2;PMS_P1;PMS_P2;Temp;Humidity;BMP_temperature;BMP_pressure;BME280_temperature;BME280_humidity;BME280_pressure;Samples;Min_cycle;Max_cycle;Signal;HPM_P1;HPM_P2
2024/01/10 00:01:04;;;;;;;0.82;0.82;;;;;;;-5.95;69.90;101281.13;5054081;28;19921;-75
2024/01/10 00:03:33;;;;;;;0.70;0.70;;;;;;;-6.10;70.29;101268.94;5052178;28;20487;-75
2024/01/10 00:06:03;;;;;;;1.50;1.40;;;;;;;-6.08;70.37;101277.41;5053343;28;20041;-75
2024/01/10 00:08:33;;;;;;;1.98;1.88;;;;;;;-6.22;70.31;101263.75;5069124;28;20094;-75
2024/01/10 00:11:02;;;;;;;2.85;2.25;;;;;;;-6.30;70.44;101279.56;5053444;28;20115;-75
2024/01/10 00:13:33;;;;;;;1.60;1.52;;;;;;;-6.43;70.27;101281.69;5053082;28;20395;-75
2024/01/10 00:16:02;;;;;;;4.40;4.10;;;;;;;-6.34;70.60;101283.41;5052182;28;20140;-75
2024/01/10 00:18:31;;;;;;;0.75;0.75;;;;;;;-6.40;70.71;101282.81;5055434;28;20033;-75
2024/01/10 00:21:00;;;;;;;4.45;3.88;;;;;;;-6.58;70.79;101270.34;5057262;28;20045;-75
2024/01/10 00:23:31;;;;;;;2.08;1.98;;;;;;;-6.45;71.03;101283.13;5057179;28;20065;-75
2024/01/10 00:25:59;;;;;;;3.67;3.42;;;;;;;-6.55;71.12;101261.56;5057297;28;20045;-75
2024/01/10 00:28:28;;;;;;;2.53;2.38;;;;;;;-6.49;71.14;101286.94;5057142;28;20055;-76
2024/01/10 00:30:57;;;;;;;0.45;0.45;;;;;;;-6.58;71.22;101290.19;5057317;28;20044;-75
2024/01/10 00:33:26;;;;;;;0.85;0.80;;;;;;;-6.58;71.30;101295.16;5057156;28;20044;-75
2024/01/10 00:35:55;;;;;;;2.83;2.63;;;;;;;-6.60;71.50;101297.53;5055803;28;20550;-75
2024/01/10 00:38:24;;;;;;;0.50;0.50;;;;;;;-6.70;71.21;101289.94;5055471;28;20407;-75
2024/01/10 00:40:56;;;;;;;0.60;0.60;;;;;;;-6.75;71.47;101300.19;5057122;28;20056;-76
2024/01/10 00:43:25;;;;;;;2.38;2.28;;;;;;;-6.81;71.50;101301.34;5057127;28;20037;-76
2024/01/10 00:45:53;;;;;;;0.70;0.70;;;;;;;-6.79;71.76;101299.03;5056512;28;20045;-75
2024/01/10 00:48:22;;;;;;;1.23;1.15;;;;;;;-6.73;71.87;101298.72;5056612;28;20556;-76
2024/01/10 00:50:51;;;;;;;0.93;0.93;;;;;;;-6.81;71.86;101290.53;5055555;28;20053;-76
2024/01/10 00:53:20;;;;;;;0.65;0.65;;;;;;;-6.83;71.82;101292.91;5071923;28;20048;-76
2024/01/10 00:55:49;;;;;;;1.00;0.95;;;;;;;-6.80;71.89;101297.28;5055846;28;20049;-76
2024/01/10 00:58:20;;;;;;;1.60;1.50;;;;;;;-6.88;71.91;101299.03;5038746;28;20052;-76
2024/01/10 01:00:50;;;;;;;1.08;1.08;;;;;;;-6.85;72.02;101299.34;5056743;28;20060;-76
2024/01/10 01:03:19;;;;;;;;;;;;;;;-6.70;72.16;101299.00;5055379;28;20072;-75
2024/01/10 01:05:47;;;;;;;0.63;0.63;;;;;;;-6.81;72.03;101291.44;5056629;28;20020;-75
2024/01/10 01:08:16;;;;;;;5.10;4.03;;;;;;;-6.96;72.09;101296.59;5056546;28;20037;-75
2024/01/10 01:10:46;;;;;;;0.50;0.50;;;;;;;-7.00;72.29;101297.88;5056651;28;20061;-75
2024/01/10 01:13:15;;;;;;;1.50;1.40;;;;;;;-6.82;72.43;101294.66;5056384;28;20127;-75
2024/01/10 01:15:46;;;;;;;2.35;2.25;;;;;;;-6.71;72.26;101297.22;5056266;28;20040;-75
2024/01/10 01:18:14;;;;;;;2.67;2.47;;;;;;;-6.77;72.36;101296.69;5056396;28;20068;-75
2024/01/10 01:20:44;;;;;;;1.05;1.05;;;;;;;-6.92;72.07;101304.44;5056317;28;20430;-75
2024/01/10 01:23:13;;;;;;;;;;;;;;;-6.97;72.33;101302.25;5056765;28;20147;-75
2024/01/10 01:25:44;;;;;;;1.33;1.27;;;;;;;-6.98;72.58;101301.38;5055998;28;19924;-75
2024/01/10 01:28:13;;;;;;;3.15;1.77;;;;;;;-7.00;72.63;101301.97;5056179;28;20045;-75
2024/01/10 01:30:42;;;;;;;2.38;2.28;;;;;;;-7.06;72.56;101301.41;5053719;28;20047;-75
2024/01/10 01:33:12;;;;;;;1.02;1.02;;;;;;;-7.13;72.64;101299.97;5054950;28;20043;-75
2024/01/10 01:35:41;;;;;;;0.50;0.50;;;;;;;-7.23;72.75;101299.81;5054977;28;20162;-75
2024/01/10 01:38:10;;;;;;;1.50;1.40;;;;;;;-7.26;72.78;101306.97;5055790;28;20045;-75
2024/01/10 01:40:39;;;;;;;0.60;0.60;;;;;;;-7.09;73.10;101306.94;5055818;28;20129;-75
2024/01/10 01:43:21;;;;;;;0.47;0.47;;;;;;;-6.94;73.04;101305.91;5056002;28;20103;-75
2024/01/10 01:45:52;;;;;;;0.95;0.95;;;;;;;-6.92;72.86;101304.44;5055956;28;20037;-75
2024/01/10 01:48:26;;;;;;;2.50;2.30;;;;;;;-7.23;72.62;101293.97;5055904;28;20057;-75
2024/01/10 01:50:58;;;;;;;1.67;1.58;;;;;;;-7.30;72.57;101309.88;5055847;28;20040;-75
2024/01/10 01:53:28;;;;;;;0.60;0.60;;;;;;;-7.30;73.00;101313.97;5055481;28;20049;-75
2024/01/10 01:55:58;;;;;;;0.43;0.43;;;;;;;-7.36;73.38;101294.41;5055602;28;20090;-75
2024/01/10 01:58:27;;;;;;;3.25;3.05;;;;;;;-7.28;73.05;101310.91;5055287;28;20060;-75
2024/01/10 02:00:57;;;;;;;0.50;0.50;;;;;;;-7.26;73.07;101304.47;5055457;28;20492;-75
2024/01/10 02:03:27;;;;;;;0.60;0.60;;;;;;;-7.23;73.12;101307.25;5055547;28;20037;-75
2024/01/10 02:05:56;;;;;;;1.15;1.15;;;;;;;-7.42;72.89;101283.94;5055713;28;20063;-75
2024/01/10 02:08:25;;;;;;;0.45;0.45;;;;;;;-7.34;73.03;101320.22;5055122;28;20091;-75
2024/01/10 02:10:55;;;;;;;2.85;2.65;;;;;;;-7.33;72.93;101319.50;5055316;28;20167;-75
2024/01/10 02:13:24;;;;;;;0.82;0.82;;;;;;;-7.29;73.07;101320.69;5055354;28;20151;-76
2024/01/10 02:15:54;;;;;;;0.40;0.40;;;;;;;-7.30;73.01;101314.84;5055059;28;20491;-75
2024/01/10 02:18:23;;;;;;;0.85;0.85;;;;;;;-7.43;72.94;101292.09;5053784;28;20048;-74
2024/01/10 02:20:53;;;;;;;;;;;;;;;-7.50;72.82;101310.47;5055552;28;20491;-75
2024/01/10 02:23:22;;;;;;;4.68;3.70;;;;;;;-7.51;72.99;101312.81;5055456;28;19921;-75
2024/01/10 02:25:52;;;;;;;0.43;0.43;;;;;;;-7.45;73.08;101315.84;5054680;28;20033;-75
2024/01/10 02:28:23;;;;;;;4.38;2.70;;;;;;;-7.47;73.19;101319.78;5054882;28;20487;-75
2024/01/10 02:30:54;;;;;;;0.73;0.73;;;;;;;-7.50;73.25;101317.00;5055117;28;20122;-75
2024/01/10 02:33:22;;;;;;;0.65;0.65;;;;;;;-7.54;73.51;101313.38;5055008;28;20064;-75
2024/01/10 02:35:51;;;;;;;1.13;1.10;;;;;;;-7.50;73.33;101314.53;5055186;28;20037;-75
2024/01/10 02:38:23;;;;;;;;;;;;;;;-7.50;73.42;101309.59;5055336;28;20049;-75
2024/01/10 02:40:56;;;;;;;0.57;0.57;;;;;;;-7.48;73.43;101312.22;5054499;28;19920;-75
2024/01/10 02:43:24;;;;;;;2.08;1.85;;;;;;;-7.50;73.56;101312.06;5054690;28;20041;-75
2024/01/10 02:45:54;;;;;;;3.28;2.83;;;;;;;-7.45;73.65;101313.38;5054555;28;20037;-74
2024/01/10 02:48:23;;;;;;;3.65;3.42;;;;;;;-7.47;73.43;101292.53;5053321;28;20029;-75
2024/01/10 02:50:54;;;;;;;0.50;0.50;;;;;;;-7.43;73.62;101301.13;5054544;28;20061;-76
2024/01/10 02:53:23;;;;;;;2.42;1.52;;;;;;;-7.41;73.88;101292.25;5036753;28;20403;-75
2024/01/10 02:55:52;;;;;;;2.20;2.03;;;;;;;-7.41;73.78;101282.34;5054562;28;20041;-76
2024/01/10 02:58:25;;;;;;;2.78;2.58;;;;;;;-7.40;73.82;101289.91;5053237;28;20068;-76
2024/01/10 03:00:54;;;;;;;0.55;0.55;;;;;;;-7.45;73.82;101282.75;5054595;28;20065;-76
2024/01/10 03:03:23;;;;;;;4.40;3.42;;;;;;;-7.46;74.09;101286.81;5054520;28;20506;-76
2024/01/10 03:05:52;;;;;;;1.85;1.75;;;;;;;-7.41;73.96;101285.66;5054458;28;20091;-76
2024/01/10 03:08:21;;;;;;;0.80;0.80;;;;;;;-7.37;74.08;101281.88;5069673;28;20128;-76
2024/01/10 03:10:50;;;;;;;2.25;2.15;;;;;;;-7.37;74.02;101272.84;5054660;28;20029;-76
2024/01/10 03:13:18;;;;;;;1.45;1.35;;;;;;;-7.45;74.13;101248.94;5036552;28;20081;-76
2024/01/10 03:15:49;;;;;;;1.48;1.38;;;;;;;-7.39;74.09;101269.34;5069647;28;20037;-76
2024/01/10 03:18:18;;;;;;;2.15;2.05;;;;;;;-7.29;74.61;101271.94;5052702;28;20124;-76
2024/01/10 03:20:47;;;;;;;0.88;0.88;;;;;;;-7.30;74.13;101271.81;5054335;28;20442;-76
2024/01/10 03:23:15;;;;;;;1.02;1.02;;;;;;;-7.27;74.34;101277.06;5054002;28;20079;-76
2024/01/10 03:25:45;;;;;;;0.80;0.80;;;;;;;-7.28;74.38;101273.72;5053722;28;20041;-76
2024/01/10 03:28:17;;;;;;;0.90;0.90;;;;;;;-7.15;74.41;101281.56;5052862;28;20487;-76
2024/01/10 03:30:46;;;;;;;1.33;1.23;;;;;;;-7.08;74.37;101278.91;5053955;28;20403;-76
2024/01/10 03:33:17;;;;;;;1.30;1.20;;;;;;;-7.04;74.29;101280.97;5036478;28;20041;-76
2024/01/10 03:35:46;;;;;;;0.55;0.55;;;;;;;-7.09;73.89;101262.31;5054091;28;20045;-76
2024/01/10 03:38:16;;;;;;;0.45;0.45;;;;;;;-6.97;74.21;101273.38;5053983;28;20124;-76
2024/01/10 03:40:45;;;;;;;0.50;0.50;;;;;;;-6.96;73.97;101277.59;5053779;28;20048;-76
2024/01/10 03:43:14;;;;;;;0.82;0.82;;;;;;;-6.95;73.90;101276.88;5053982;28;20090;-76
2024/01/10 03:45:43;;;;;;;1.42;1.33;;;;;;;-7.07;73.75;101263.31;5019815;28;20574;-76
2024/01/10 03:48:12;;;;;;;4.35;3.45;;;;;;;-7.02;73.66;101272.06;5053349;28;20033;-77
2024/01/10 03:50:43;;;;;;;;;;;;;;;-6.99;73.96;101264.91;5053969;28;20068;-76
2024/01/10 03:53:11;;;;;;;0.85;0.85;;;;;;;-6.96;73.52;101272.63;5055016;28;19946;-77
2024/01/10 03:55:40;;;;;;;0.80;0.80;;;;;;;-6.99;73.54;101259.06;5056783;28;20094;-77
2024/01/10 03:58:09;;;;;;;0.63;0.63;;;;;;;-6.98;73.47;101264.16;5058098;28;20065;-77
2024/01/10 04:00:38;;;;;;;1.45;1.35;;;;;;;-6.97;73.25;101270.91;5057834;28;20074;-76
2024/01/10 04:03:07;;;;;;;0.82;0.82;;;;;;;-6.90;73.15;101274.81;5055808;28;20385;-77
2024/01/10 04:05:36;;;;;;;0.80;0.80;;;;;;;-6.92;73.27;101271.31;5057194;28;20108;-77
2024/01/10 04:08:08;;;;;;;2.83;2.58;;;;;;;-6.87;73.25;101270.16;5057549;28;20472;-77
2024/01/10 04:10:37;;;;;;;2.72;0.93;;;;;;;-6.81;72.98;101269.09;5057402;28;20110;-77
2024/01/10 04:13:06;;;;;;;1.80;1.70;;;;;;;-6.88;72.65;101264.28;5056557;28;20123;-76
2024/01/10 04:15:35;;;;;;;1.85;1.75;;;;;;;-6.97;72.85;101268.41;5056146;28;20041;-77
2024/01/10 04:18:05;;;;;;;0.75;0.75;;;;;;;-6.98;72.47;101274.09;5057171;28;20037;-77
2024/01/10 04:20:34;;;;;;;1.52;1.42;;;;;;;-7.21;72.47;101265.25;5057503;28;20495;-76
2024/01/10 04:23:03;;;;;;;0.55;0.55;;;;;;;-7.23;72.40;101282.47;5057554;28;20037;-76
2024/01/10 04:25:35;;;;;;;0.65;0.65;;;;;;;-7.42;72.46;101259.16;5039470;28;20071;-75
2024/01/10 04:28:04;;;;;;;0.60;0.60;;;;;;;-7.33;72.48;101274.00;5057173;28;20045;-76
2024/01/10 04:30:33;;;;;;;;;;;;;;;-7.37;72.43;101282.78;5023635;28;20119;-77
2024/01/10 04:33:02;;;;;;;0.50;0.50;;;;;;;-7.32;72.50;101281.59;5057071;28;19927;-77
2024/01/10 04:35:31;;;;;;;0.50;0.50;;;;;;;-7.24;72.55;101278.22;5057290;28;20152;-77
2024/01/10 04:38:00;;;;;;;0.40;0.40;;;;;;;-7.21;72.83;101283.47;5055488;28;20487;-77
2024/01/10 04:40:29;;;;;;;3.45;3.15;;;;;;;-7.33;72.82;101255.03;5057150;28;20036;-77
2024/01/10 04:42:59;;;;;;;3.65;3.35;;;;;;;-7.06;72.63;101286.53;5055825;28;20037;-77
2024/01/10 04:45:29;;;;;;;0.70;0.70;;;;;;;-7.04;72.58;101285.94;5056636;28;20499;-77
2024/01/10 04:47:58;;;;;;;0.57;0.57;;;;;;;-7.04;72.63;101280.97;5056670;28;20041;-77
2024/01/10 04:50:26;;;;;;;0.70;0.70;;;;;;;-6.98;72.68;101276.56;5056520;28;20115;-77
2024/01/10 04:52:55;;;;;;;1.05;1.05;;;;;;;-6.97;72.84;101275.84;5056682;28;20095;-77
2024/01/10 04:55:24;;;;;;;2.30;2.20;;;;;;;-7.00;72.64;101275.56;5056313;28;20037;-77
2024/01/10 04:57:53;;;;;;;3.13;2.90;;;;;;;-6.92;72.57;101279.63;5056365;28;20103;-76
2024/01/10 05:00:23;;;;;;;1.10;1.10;;;;;;;-6.95;72.47;101271.91;5055254;28;20049;-77
2024/01/10 05:02:52;;;;;;;1.50;1.40;;;;;;;-7.07;72.36;101270.75;5056485;28;20045;-76
2024/01/10 05:05:23;;;;;;;3.00;2.80;;;;;;;-7.12;72.29;101276.91;5055787;28;20143;-75
2024/01/10 05:07:53;;;;;;;3.00;2.72;;;;;;;-7.25;72.13;101278.09;5054953;28;20091;-75
2024/01/10 05:10:23;;;;;;;3.08;2.08;;;;;;;-7.38;72.20;101271.09;5056349;28;20045;-75
2024/01/10 05:12:51;;;;;;;0.70;0.70;;;;;;;-7.40;72.19;101272.56;5038017;28;20049;-75
2024/01/10 05:15:21;;;;;;;0.77;0.77;;;;;;;-7.48;72.22;101290.78;5056342;28;20049;-75
2024/01/10 05:17:51;;;;;;;0.80;0.80;;;;;;;-7.58;72.31;101289.00;5021927;28;20099;-75
2024/01/10 05:20:20;;;;;;;0.82;0.75;;;;;;;-7.64;72.07;101287.56;5056797;28;20555;-75
2024/01/10 05:22:50;;;;;;;3.47;1.85;;;;;;;-7.67;72.54;101290.63;5056114;28;20037;-75
2024/01/10 05:25:19;;;;;;;0.50;0.50;;;;;;;-7.71;72.44;101282.75;5054898;28;20041;-76
2024/01/10 05:27:49;;;;;;;0.70;0.70;;;;;;;-7.76;72.43;101288.84;5055961;28;20052;-75
2024/01/10 05:30:18;;;;;;;1.65;1.35;;;;;;;-7.81;72.59;101285.06;5056123;28;20116;-75
2024/01/10 05:32:47;;;;;;;;;;;;;;;-7.67;73.17;101292.22;5056045;28;20033;-75
2024/01/10 05:35:17;;;;;;;0.73;0.73;;;;;;;-7.59;72.86;101289.75;5037587;28;19921;-75
2024/01/10 05:37:46;;;;;;;4.30;0.90;;;;;;;-7.55;73.02;101281.88;5055873;28;20067;-75
2024/01/10 05:40:16;;;;;;;0.95;0.95;;;;;;;-7.58;72.99;101285.66;5054517;28;20075;-75
2024/01/10 05:42:45;;;;;;;1.77;1.73;;;;;;;-7.57;73.16;101283.34;5054726;28;20045;-75
2024/01/10 05:45:17;;;;;;;0.88;0.88;;;;;;;-7.54;73.25;101285.25;5055951;28;20123;-76
2024/01/10 05:47:48;;;;;;;4.25;3.90;;;;;;;-7.51;73.40;101283.06;5055952;28;20388;-76
2024/01/10 05:50:19;;;;;;;0.80;0.80;;;;;;;-7.49;73.24;101284.09;5006866;28;20132;-75
2024/01/10 05:52:49;;;;;;;1.48;1.38;;;;;;;-7.41;73.47;101280.72;5038234;28;20095;-75
2024/01/10 05:55:19;;;;;;;2.13;2.00;;;;;;;-7.32;73.54;101266.72;5021708;28;20041;-77
2024/01/10 05:57:47;;;;;;;2.33;2.22;;;;;;;-7.21;73.53;101266.13;5055764;28;20052;-77
2024/01/10 06:00:17;;;;;;;;;;;;;;;-7.21;73.41;101275.16;5056229;28;20039;-77
2024/01/10 06:02:46;;;;;;;5.63;5.15;;;;;;;-7.31;73.33;101263.50;5055353;28;19966;-77
2024/01/10 06:05:15;;;;;;;1.70;1.60;;;;;;;-7.29;73.10;101276.06;5053740;28;20507;-76
2024/01/10 06:07:45;;;;;;;5.90;5.50;;;;;;;-7.18;73.15;101270.50;5055052;28;20033;-76
2024/01/10 06:10:14;;;;;;;10.57;4.88;;;;;;;-7.22;72.90;101274.28;5053883;28;20171;-75
2024/01/10 06:12:43;;;;;;;2.60;2.42;;;;;;;-7.21;73.07;101273.56;5054889;28;20037;-76
2024/01/10 06:15:13;;;;;;;3.78;2.60;;;;;;;-7.25;72.74;101276.50;5053298;28;20045;-75
2024/01/10 06:17:41;;;;;;;;;;;;;;;-7.20;72.90;101272.84;5055703;28;20053;-75
2024/01/10 06:20:11;;;;;;;4.47;3.50;;;;;;;-7.21;72.90;101281.00;5036825;28;19970;-76
2024/01/10 06:22:41;;;;;;;0.73;0.70;;;;;;;-7.42;72.32;101243.38;5055074;28;20037;-76
2024/01/10 06:25:12;;;;;;;1.80;1.65;;;;;;;-7.31;72.73;101278.38;5055143;28;20102;-76
2024/01/10 06:27:42;;;;;;;3.13;2.92;;;;;;;-7.32;72.71;101273.28;5053695;28;20052;-75
2024/01/10 06:30:11;;;;;;;0.60;0.60;;;;;;;-7.29;72.72;101276.91;5054585;28;20037;-76
2024/01/10 06:32:40;;;;;;;1.05;1.05;;;;;;;-7.19;72.58;101284.50;5036799;28;20055;-76
2024/01/10 06:35:10;;;;;;;1.15;1.15;;;;;;;-7.16;72.60;101289.75;5036981;28;20052;-75
2024/01/10 06:37:39;;;;;;;0.60;0.60;;;;;;;-7.14;72.68;101292.34;5054809;28;20103;-77
2024/01/10 06:40:09;;;;;;;0.43;0.43;;;;;;;-7.09;72.54;101297.03;5054803;28;20068;-76
2024/01/10 06:42:40;;;;;;;2.67;2.47;;;;;;;-7.10;72.57;101294.41;5053441;28;20507;-77
2024/01/10 06:45:11;;;;;;;1.15;1.15;;;;;;;-7.10;72.31;101305.19;5054736;28;20041;-77
2024/01/10 06:47:41;;;;;;;2.17;2.08;;;;;;;-7.16;72.35;101299.66;5054951;28;20059;-77
2024/01/10 06:50:10;;;;;;;;;;;;;;;-7.20;72.33;101297.63;5054847;28;20128;-77
2024/01/10 06:52:39;;;;;;;1.20;1.20;;;;;;;-7.41;72.34;101264.97;5054301;28;19927;-77
2024/01/10 06:55:09;;;;;;;4.60;4.10;;;;;;;-7.21;72.45;101300.84;5054116;28;20514;-76
2024/01/10 06:57:40;;;;;;;1.55;1.45;;;;;;;-7.16;72.75;101302.16;5036465;28;20061;-76
2024/01/10 07:00:10;;;;;;;1.35;1.30;;;;;;;-7.12;72.32;101301.69;5069862;28;20063;-75
2024/01/10 07:02:40;;;;;;;1.05;1.02;;;;;;;-6.91;72.85;101301.22;5036440;28;20045;-77
2024/01/10 07:05:12;;;;;;;;;;;;;;;-6.35;73.13;101289.09;5054285;28;20507;-76
2024/01/10 07:07:41;;;;;;;0.80;0.80;;;;;;;-6.02;72.81;101292.88;5052952;28;19921;-76
2024/01/10 07:10:11;;;;;;;0.75;0.75;;;;;;;-6.00;72.42;101302.22;5053722;28;20124;-76
2024/01/10 07:12:41;;;;;;;3.13;2.92;;;;;;;-6.02;72.11;101298.69;5053304;28;20041;-75
2024/01/10 07:15:11;;;;;;;4.97;4.53;;;;;;;-5.89;71.97;101296.59;5052890;28;20052;-75
2024/01/10 07:17:40;;;;;;;2.30;2.15;;;;;;;-5.52;71.84;101296.59;5046623;28;20069;-78
2024/01/10 07:20:12;;;;;;;2.15;2.05;;;;;;;-4.70;71.86;101292.94;5033022;28;20056;-76
2024/01/10 07:22:43;;;;;;;0.55;0.55;;;;;;;-4.25;71.07;101297.66;5037212;28;20096;-77
2024/01/10 07:25:14;;;;;;;1.45;1.23;;;;;;;-4.14;69.92;101291.94;5041884;28;20067;-76
2024/01/10 07:27:45;;;;;;;2.22;1.48;;;;;;;-4.29;69.40;101270.72;5042204;28;20427;-76
2024/01/10 07:30:14;;;;;;;2.30;2.20;;;;;;;-4.13;68.63;101298.66;5042271;28;20033;-76
2024/01/10 07:32:44;;;;;;;1.00;1.00;;;;;;;-4.21;68.02;101286.31;5032407;28;20128;-76
2024/01/10 07:35:14;;;;;;;0.93;0.93;;;;;;;-4.14;67.90;101291.94;5032443;28;20076;-76
2024/01/10 07:37:44;;;;;;;3.33;2.88;;;;;;;-4.04;67.85;101297.69;5032532;28;20057;-76
2024/01/10 07:40:13;;;;;;;0.55;0.55;;;;;;;-4.21;67.34;101272.25;5015932;28;20103;-76
2024/01/10 07:42:45;;;;;;;2.38;1.00;;;;;;;-4.01;67.26;101297.94;5032589;28;20114;-78
2024/01/10 07:45:14;;;;;;;8.55;1.67;;;;;;;-4.03;66.99;101300.28;5033733;28;20111;-78
2024/01/10 07:47:43;;;;;;;1.08;0.85;;;;;;;-4.00;66.11;101299.69;5032443;28;20499;-78
2024/01/10 07:50:14;;;;;;;1.00;1.00;;;;;;;-4.02;65.89;101301.16;5032442;28;20049;-77
2024/01/10 07:52:44;;;;;;;1.10;1.10;;;;;;;-4.02;65.80;101304.53;5016404;28;20069;-78
2024/01/10 07:55:19;;;;;;;1.60;1.50;;;;;;;-4.52;65.50;101223.13;5049129;28;20139;-77
2024/01/10 07:57:52;;;;;;;0.50;0.50;;;;;;;-4.14;65.70;101272.00;5032952;28;20141;-77
2024/01/10 08:00:22;;;;;;;1.38;1.30;;;;;;;-3.89;65.90;101311.44;5033457;28;20053;-77
2024/01/10 08:02:51;;;;;;;1.50;1.40;;;;;;;-3.85;65.37;101305.94;5033373;28;20507;-78
2024/01/10 08:05:21;;;;;;;0.73;0.73;;;;;;;-3.79;65.31;101307.28;5031907;28;20049;-78
2024/01/10 08:07:50;;;;;;;1.90;1.80;;;;;;;-3.81;65.13;101307.91;5015859;28;20136;-78
2024/01/10 08:10:18;;;;;;;1.88;1.77;;;;;;;-3.77;65.09;101314.94;5033731;28;20430;-77
2024/01/10 08:12:47;;;;;;;1.67;1.58;;;;;;;-3.77;64.93;101317.41;5033491;28;20132;-78
2024/01/10 08:15:17;;;;;;;1.15;1.13;;;;;;;-3.81;64.58;101312.91;5033287;28;20033;-77
2024/01/10 08:17:47;;;;;;;1.55;1.45;;;;;;;-3.98;64.51;101308.19;5033534;28;20092;-76
2024/01/10 08:20:20;;;;;;;0.95;0.95;;;;;;;-4.07;64.91;101319.13;5032239;28;20042;-77
2024/01/10 08:22:50;;;;;;;4.82;2.45;;;;;;;-4.04;64.89;101312.66;5032250;28;20077;-77
2024/01/10 08:25:19;;;;;;;1.33;1.30;;;;;;;-4.00;64.98;101314.63;5032891;28;20056;-77
2024/01/10 08:27:48;;;;;;;0.75;0.75;;;;;;;-3.96;64.98;101314.16;5033319;28;20087;-77
2024/01/10 08:30:21;;;;;;;;;;;;;;;-3.91;64.84;101315.41;5033518;28;20071;-77
2024/01/10 08:32:52;;;;;;;1.73;1.63;;;;;;;-3.83;64.99;101312.78;5033212;28;19964;-77
2024/01/10 08:35:24;;;;;;;0.93;0.90;;;;;;;-3.70;65.15;101317.16;5031769;28;20041;-76
2024/01/10 08:37:57;;;;;;;0.93;0.93;;;;;;;-3.55;64.87;101318.41;5032154;28;20042;-76
2024/01/10 08:40:27;;;;;;;0.88;0.85;;;;;;;-3.41;64.86;101315.41;5036634;28;20097;-77
2024/01/10 08:42:55;;;;;;;10.57;2.50;;;;;;;-3.27;64.62;101316.50;5036674;28;20045;-75
2024/01/10 08:45:27;;;;;;;1.35;1.25;;;;;;;-3.13;64.76;101306.00;5037135;28;20377;-75
2024/01/10 08:47:57;;;;;;;3.25;1.70;;;;;;;-2.98;64.06;101312.19;5036677;28;20072;-75
2024/01/10 08:50:27;;;;;;;0.85;0.85;;;;;;;-2.88;63.90;101315.50;5036398;28;20045;-75
2024/01/10 08:52:55;;;;;;;4.70;3.78;;;;;;;-2.66;63.88;101314.72;5036576;28;20507;-74
2024/01/10 08:55:24;;;;;;;4.28;2.13;;;;;;;-2.55;63.43;101316.41;5035132;28;20037;-75
2024/01/10 08:57:53;;;;;;;0.60;0.60;;;;;;;-2.54;63.00;101303.16;5036732;28;20034;-74
2024/01/10 09:00:24;;;;;;;2.38;1.83;;;;;;;-2.52;62.55;101315.00;5035270;28;20791;-74
2024/01/10 09:02:55;;;;;;;2.58;2.38;;;;;;;-2.43;61.92;101322.34;5036632;28;20041;-73
2024/01/10 09:05:24;;;;;;;0.75;0.75;;;;;;;-2.51;61.58;101318.38;5036258;28;20395;-73
2024/01/10 09:07:54;;;;;;;3.35;2.25;;;;;;;-2.52;61.31;101315.00;5036459;28;20064;-73
2024/01/10 09:10:22;;;;;;;0.68;0.68;;;;;;;-2.46;60.81;101317.09;5036306;28;20033;-72
2024/01/10 09:12:51;;;;;;;2.28;2.08;;;;;;;-2.41;61.13;101316.72;5036351;28;20045;-72
2024/01/10 09:15:20;;;;;;;0.70;0.70;;;;;;;-2.05;60.73;101323.63;5036498;28;20042;-76
2024/01/10 09:17:49;;;;;;;0.65;0.65;;;;;;;-2.03;60.71;101320.47;5036298;28;20037;-76
2024/01/10 09:20:20;;;;;;;1.08;1.05;;;;;;;-1.97;60.18;101314.19;5034950;28;20055;-75
2024/01/10 09:22:50;;;;;;;0.70;0.70;;;;;;;-2.12;59.62;101317.31;5036324;28;20041;-73
2024/01/10 09:25:19;;;;;;;0.70;0.70;;;;;;;-2.10;59.80;101304.91;5035956;28;20095;-71
2024/01/10 09:27:48;;;;;;;1.67;1.58;;;;;;;-2.08;59.80;101303.38;5036417;28;20072;-74
2024/01/10 09:30:18;;;;;;;7.17;2.40;;;;;;;-1.94;59.65;101307.78;5035747;28;20096;-73
2024/01/10 09:32:47;;;;;;;0.85;0.80;;;;;;;-1.94;59.28;101294.44;5034542;28;20107;-72
2024/01/10 09:35:17;;;;;;;2.33;2.03;;;;;;;-2.00;59.56;101297.34;5035950;28;20120;-72
2024/01/10 09:37:49;;;;;;;0.68;0.68;;;;;;;-1.86;59.71;101300.84;5035959;28;20389;-73
2024/01/10 09:40:20;;;;;;;1.45;1.35;;;;;;;-1.71;59.99;101295.34;5035652;28;20073;-73
2024/01/10 09:42:51;;;;;;;0.85;0.85;;;;;;;-1.39;59.74;101288.53;5036286;28;20042;-73
2024/01/10 09:45:22;;;;;;;0.98;0.98;;;;;;;-1.27;59.16;101282.69;5035600;28;20049;-73
2024/01/10 09:47:55;;;;;;;0.60;0.60;;;;;;;-1.17;58.94;101290.94;5035471;28;20052;-72
2024/01/10 09:50:26;;;;;;;1.83;1.73;;;;;;;-1.09;58.87;101284.00;5034564;28;20516;-72
2024/01/10 09:53:06;;;;;;;7.55;2.80;;;;;;;-1.41;58.42;101229.97;5034271;28;20046;-72
2024/01/10 09:55:38;;;;;;;0.73;0.73;;;;;;;-1.13;58.24;101287.03;5035691;28;20045;-72
2024/01/10 09:58:09;;;;;;;7.38;2.33;;;;;;;-1.10;57.92;101282.22;5035636;28;20049;-72
2024/01/10 10:00:40;;;;;;;4.38;2.30;;;;;;;-1.01;57.89;101277.91;5035356;28;20049;-72
2024/01/10 10:03:12;;;;;;;1.50;1.40;;;;;;;-1.08;58.16;101275.72;5035595;28;20037;-71
2024/01/10 10:05:42;;;;;;;0.40;0.40;;;;;;;-0.93;58.11;101276.78;5035050;28;20518;-72
2024/01/10 10:08:15;;;;;;;1.80;1.70;;;;;;;-0.72;58.24;101269.13;5035396;28;20064;-72
2024/01/10 10:10:44;;;;;;;1.13;1.08;;;;;;;-0.65;57.87;101275.44;5035131;28;20037;-71
2024/01/10 10:13:26;;;;;;;0.90;0.90;;;;;;;-0.56;58.07;101272.69;5036251;28;20103;-71
2024/01/10 10:16:02;;;;;;;0.70;0.70;;;;;;;-0.29;58.09;101272.06;5035256;28;20407;-70
2024/01/10 10:18:33;;;;;;;3.13;2.25;;;;;;;-0.08;57.76;101258.44;5034989;28;20049;-70
2024/01/10 10:21:09;;;;;;;;;;;;;;;-0.01;57.23;101271.50;5035788;28;20575;-70
2024/01/10 10:23:42;;;;;;;1.23;1.10;;;;;;;-0.14;56.95;101271.44;5035157;28;19925;-70
2024/01/10 10:26:19;;;;;;;0.80;0.80;;;;;;;-0.08;56.84;101259.34;5034857;28;20053;-71
2024/01/10 10:28:49;;;;;;;4.38;0.90;;;;;;;0.00;56.24;101263.19;5035011;28;20419;-70
2024/01/10 10:31:19;;;;;;;5.85;1.58;;;;;;;0.11;56.29;101260.53;5034565;28;20549;-71
2024/01/10 10:33:50;;;;;;;1.20;1.15;;;;;;;0.41;56.26;101262.53;5035510;28;20500;-70
2024/01/10 10:36:20;;;;;;;3.00;2.15;;;;;;;0.34;56.02;101265.41;5034582;28;20042;-69
2024/01/10 10:38:50;;;;;;;1.60;1.50;;;;;;;0.56;55.83;101263.50;5034844;28;20049;-70
2024/01/10 10:41:20;;;;;;;8.98;1.80;;;;;;;0.59;55.17;101263.72;5034720;28;20045;-70
2024/01/10 10:43:51;;;;;;;2.42;2.22;;;;;;;0.82;55.06;101257.63;5034680;28;20057;-70
2024/01/10 10:46:22;;;;;;;2.25;2.05;;;;;;;0.92;54.84;101250.78;5034406;28;20096;-70
2024/01/10 10:48:51;;;;;;;1.20;1.10;;;;;;;1.09;53.85;101260.25;5034625;28;20049;-70
2024/01/10 10:51:29;;;;;;;0.95;0.95;;;;;;;1.12;53.30;101255.41;5034491;28;20481;-70
2024/01/10 10:54:00;;;;;;;1.05;1.05;;;;;;;1.31;53.34;101252.38;5033057;28;20041;-70
2024/01/10 10:56:31;;;;;;;2.67;2.47;;;;;;;1.15;53.33;101249.69;5034153;28;20049;-70
2024/01/10 10:59:02;;;;;;;2.03;1.85;;;;;;;1.11;52.50;101238.56;5033182;28;20053;-70
2024/01/10 11:01:34;;;;;;;3.85;2.85;;;;;;;1.38;53.04;101246.06;5033746;28;20042;-70
2024/01/10 11:04:03;;;;;;;1.77;1.67;;;;;;;1.47;52.51;101246.59;5034000;28;20096;-70
2024/01/10 11:06:35;;;;;;;1.27;1.17;;;;;;;1.54;52.84;101238.66;5034074;28;20399;-69
2024/01/10 11:09:11;;;;;;;1.20;1.00;;;;;;;1.63;53.41;101240.06;5034246;28;20048;-70
2024/01/10 11:11:59;;;;;;;1.70;1.60;;;;;;;1.64;54.43;101238.44;5016319;28;20049;-70
2024/01/10 11:14:43;;;;;;;2.70;2.45;;;;;;;1.73;54.74;101238.97;5033870;28;20038;-70
2024/01/10 11:17:27;;;;;;;1.30;1.20;;;;;;;1.85;54.08;101224.59;5034119;28;20056;-70
2024/01/10 11:20:17;;;;;;;1.35;1.25;;;;;;;1.88;53.85;101229.81;5032657;28;20056;-70
2024/01/10 11:23:15;;;;;;;2.40;1.95;;;;;;;1.89;54.77;101231.56;5033774;28;20534;-70
2024/01/10 11:25:46;;;;;;;3.35;2.53;;;;;;;1.95;54.00;101231.91;5030788;28;20472;-70
2024/01/10 11:28:15;;;;;;;4.10;2.08;;;;;;;1.97;53.97;101223.66;5033706;28;20133;-70
2024/01/10 11:30:51;;;;;;;0.70;0.70;;;;;;;1.91;53.84;101222.44;5033311;28;20045;-70
2024/01/10 11:33:25;;;;;;;0.63;0.63;;;;;;;1.99;54.19;101218.75;5033614;28;20053;-70
2024/01/10 11:36:13;;;;;;;1.02;1.00;;;;;;;2.07;53.96;101216.63;5033746;28;20139;-69
2024/01/10 11:38:59;;;;;;;2.78;2.55;;;;;;;2.22;53.95;101218.41;5033488;28;20045;-70
2024/01/10 11:41:32;;;;;;;1.23;1.13;;;;;;;2.49;53.97;101214.94;5031822;28;20042;-69
2024/01/10 11:44:23;;;;;;;1.98;1.88;;;;;;;2.59;53.76;101207.06;5033885;28;20056;-69